This is the latest recevied weather packets stored in our database for station/object W8KJR. If no packets are shown the sender has not sent any weather packets the latest 1 day(s).
| Time | Temp. | Humidity | Pressure | Rain* | Wind** | Luminosity | Snow |
|---|---|---|---|---|---|---|---|
| 1778004584 | 11.67° C | 94% | 1007.3 hPa | 1.27 mm | 0 m/s | - | - |
| 1778003679 | 12.22° C | 94% | 1007.4 hPa | 3.05 mm | 0 m/s | - | - |
| 1778002775 | 12.78° C | 94% | 1007.5 hPa | 3.56 mm | 0 m/s | - | - |
| 1778001873 | 13.33° C | 91% | 1007.6 hPa | 1.78 mm | 0 m/s | - | - |
| 1778000972 | 14.44° C | 87% | 1007.2 hPa | 0 mm | 0.89 m/s, 310° | - | - |
| 1778000066 | 15° C | 80% | 1007.5 hPa | 0 mm | 0.45 m/s, 294° | - | - |
| 1777999162 | 15° C | 81% | 1007.6 hPa | 0 mm | 0 m/s | - | - |
| 1777998261 | 15.56° C | 80% | 1007.5 hPa | 0 mm | 0 m/s | - | - |
| 1777997358 | 15.56° C | 79% | 1007.5 hPa | 0 mm | 0 m/s | - | - |
| 1777996454 | 15.56° C | 78% | 1007.2 hPa | 0 mm | 0 m/s | - | - |
| 1777995550 | 15.56° C | 77% | 1007.3 hPa | 0 mm | 1.34 m/s, 301° | - | - |
| 1777994647 | 16.11° C | 78% | 1007.3 hPa | 0 mm | 1.34 m/s, 274° | - | - |
| 1777993747 | 16.11° C | 77% | 1007 hPa | 0 mm | 0.89 m/s, 281° | - | - |
| 1777992842 | 16.67° C | 76% | 1006.8 hPa | 0 mm | 0.45 m/s, 273° | - | - |
| 1777991940 | 17.22° C | 74% | 1006.4 hPa | 0 mm | 0.45 m/s, 281° | - | - |
| 1777991038 | 17.78° C | 71% | 1006 hPa | 0 mm | 0.89 m/s, 226° | - | - |
| 1777990134 | 17.78° C | 72% | 1005.2 hPa | 0 mm | 0.45 m/s, 292° | - | - |
| 1777989231 | 17.22° C | 72% | 1005.3 hPa | 0 mm | 0.89 m/s, 100° | - | - |
| 1777988326 | 17.22° C | 73% | 1005.1 hPa | 0 mm | 0.89 m/s, 272° | - | - |
| 1777987422 | 16.67° C | 73% | 1005.2 hPa | 0 mm | 0.89 m/s, 233° | - | - |
| 1777986520 | 17.22° C | 73% | 1005.2 hPa | 0 mm | 0 m/s | - | - |
| 1777985618 | 16.67° C | 75% | 1005.2 hPa | 0 mm | 0.89 m/s, 150° | - | - |
| 1777984713 | 16.11° C | 77% | 1005.3 hPa | 0 mm | 0.45 m/s, 129° | - | - |
| 1777983809 | 15° C | 80% | 1005.5 hPa | 0 mm | 0 m/s | - | - |
| 1777982905 | 15° C | 80% | 1005.4 hPa | 0 mm | 0 m/s | - | - |
* Rain latest hour (hover to see other rain measurements)
** Current wind speed in m/s (hover to see current wind gust speed)